Time;durP1;ratioP1;P1;durP2;ratioP2;P2;SDS_P1;SDS_P2;PMS_P1;PMS_P2;Temp;Humidity;BMP_temperature;BMP_pressure;BME280_temperature;BME280_humidity;BME280_pressure;Samples;Min_cycle;Max_cycle;Signal;HPM_P1;HPM_P2
2022/03/14 00:00:47;;;;;;;49.67;24.67;;;5.00;41.20;;;;;;5115108;28;20047;-82
2022/03/14 00:03:13;;;;;;;41.72;20.85;;;5.10;42.00;;;;;;5114480;28;20359;-82
2022/03/14 00:05:39;;;;;;;46.03;22.73;;;5.00;41.20;;;;;;5114340;28;20375;-81
2022/03/14 00:08:06;;;;;;;39.08;20.73;;;5.10;41.40;;;;;;5114282;28;20049;-83
2022/03/14 00:10:32;;;;;;;45.38;22.70;;;5.30;40.80;;;;;;5114123;28;20031;-81
2022/03/14 00:12:58;;;;;;;44.13;21.98;;;5.40;41.20;;;;;;5114806;28;20020;-82
2022/03/14 00:15:29;;;;;;;48.00;23.38;;;5.50;41.70;;;;;;5113937;28;20047;-82
2022/03/14 00:17:56;;;;;;;43.97;22.00;;;5.80;41.50;;;;;;5113909;28;20023;-82
2022/03/14 00:20:22;;;;;;;44.15;22.70;;;6.00;40.90;;;;;;5115133;28;20067;-82
2022/03/14 00:22:48;;;;;;;41.10;20.95;;;6.10;40.70;;;;;;5114024;28;20040;-82
2022/03/14 00:25:14;;;;;;;40.90;20.55;;;6.30;40.00;;;;;;5113852;28;20138;-82
2022/03/14 00:27:40;;;;;;;47.30;23.05;;;6.10;39.80;;;;;;5113835;28;20023;-82
2022/03/14 00:30:11;;;;;;;42.10;22.55;;;6.10;40.50;;;;;;5114164;28;20029;-83
2022/03/14 00:32:37;;;;;;;43.67;22.17;;;6.10;40.60;;;;;;5113759;28;20016;-82
2022/03/14 00:35:04;;;;;;;41.97;20.88;;;6.00;41.10;;;;;;5113441;28;20062;-82
2022/03/14 00:37:30;;;;;;;44.08;22.30;;;5.80;40.90;;;;;;5113812;28;20042;-83
2022/03/14 00:39:56;;;;;;;40.55;21.30;;;5.70;41.40;;;;;;5112949;28;20035;-84
2022/03/14 00:42:22;;;;;;;38.85;20.30;;;5.70;41.30;;;;;;5113714;28;20092;-82
2022/03/14 00:44:51;;;;;;;43.42;21.45;;;5.90;41.20;;;;;;5113299;28;20024;-83
2022/03/14 00:47:18;;;;;;;43.72;21.30;;;6.10;40.50;;;;;;5115026;28;20035;-83
2022/03/14 00:49:45;;;;;;;44.30;22.17;;;6.10;40.10;;;;;;5114083;28;20059;-82
2022/03/14 00:52:12;;;;;;;45.30;22.50;;;5.60;40.80;;;;;;5113235;28;20035;-82
2022/03/14 00:54:38;;;;;;;43.85;22.25;;;5.50;41.50;;;;;;5114737;28;20448;-82
2022/03/14 00:57:05;;;;;;;40.35;21.77;;;5.50;41.40;;;;;;5114513;28;20020;-83
2022/03/14 00:59:39;;;;;;;41.97;20.38;;;5.40;41.40;;;;;;5113142;28;20432;-82
2022/03/14 01:02:05;;;;;;;42.33;21.52;;;5.60;41.70;;;;;;5113481;28;20118;-84
2022/03/14 01:04:31;;;;;;;41.70;20.83;;;5.10;41.80;;;;;;5113424;28;20069;-83
2022/03/14 01:06:57;;;;;;;40.95;19.85;;;4.90;42.50;;;;;;5113763;28;20023;-82
2022/03/14 01:09:23;;;;;;;36.13;18.77;;;4.90;43.00;;;;;;5113264;28;20037;-84
2022/03/14 01:11:48;;;;;;;40.70;20.42;;;5.30;42.10;;;;;;5113330;28;20056;-84
2022/03/14 01:14:14;;;;;;;35.63;19.13;;;5.50;41.50;;;;;;5114693;28;20019;-84
2022/03/14 01:16:40;;;;;;;36.25;19.58;;;5.60;41.10;;;;;;5114491;28;20053;-85
2022/03/14 01:19:11;;;;;;;37.80;19.45;;;5.70;40.90;;;;;;5113239;28;20028;-85
2022/03/14 01:21:40;;;;;;;36.55;19.23;;;5.70;41.00;;;;;;5113175;28;20129;-85
2022/03/14 01:24:06;;;;;;;39.40;18.60;;;5.90;40.70;;;;;;5112796;28;20044;-85
2022/03/14 01:26:34;;;;;;;41.42;20.27;;;5.90;40.40;;;;;;5114556;28;20081;-85
2022/03/14 01:29:02;;;;;;;43.00;20.35;;;5.50;40.90;;;;;;5113199;28;20474;-85
2022/03/14 01:31:34;;;;;;;35.65;18.80;;;5.50;41.30;;;;;;5111152;28;20031;-85
2022/03/14 01:34:00;;;;;;;40.50;19.60;;;5.60;41.00;;;;;;5113210;28;20026;-85
2022/03/14 01:36:29;;;;;;;39.10;19.42;;;5.50;40.80;;;;;;5113391;28;20019;-85
2022/03/14 01:38:55;;;;;;;37.78;17.83;;;5.50;41.30;;;;;;5113072;28;20520;-86
2022/03/14 01:41:22;;;;;;;36.90;19.48;;;5.60;41.10;;;;;;5113266;28;20070;-86
2022/03/14 01:43:52;;;;;;;38.72;18.77;;;5.30;41.00;;;;;;5111345;28;20203;-86
2022/03/14 01:46:18;;;;;;;43.75;20.33;;;5.40;41.10;;;;;;5113317;28;20134;-86
2022/03/14 01:48:44;;;;;;;40.60;20.02;;;5.20;41.30;;;;;;5113947;28;20024;-85
2022/03/14 01:51:16;;;;;;;41.33;20.05;;;5.00;41.40;;;;;;5113237;28;20504;-86
2022/03/14 01:53:43;;;;;;;35.38;18.70;;;4.90;41.90;;;;;;5113309;28;20020;-87
2022/03/14 01:56:12;;;;;;;41.13;18.98;;;5.00;41.90;;;;;;5114602;28;20102;-87
2022/03/14 01:59:09;;;;;;;36.55;18.67;;;4.90;41.60;;;;;;5116999;28;20111;-87
2022/03/14 02:01:35;;;;;;;40.22;18.95;;;4.80;41.70;;;;;;5116857;28;20039;-86
2022/03/14 02:04:02;;;;;;;39.40;18.58;;;4.60;42.30;;;;;;5117021;28;20020;-87
2022/03/14 02:06:28;;;;;;;35.17;17.55;;;4.70;42.00;;;;;;5118056;28;20028;-87
2022/03/14 02:08:54;;;;;;;35.15;17.23;;;4.80;41.90;;;;;;5116863;28;20023;-88
2022/03/14 02:11:20;;;;;;;39.75;18.48;;;5.00;41.90;;;;;;5117484;28;20050;-89
2022/03/14 02:13:46;;;;;;;33.70;17.13;;;5.10;41.30;;;;;;5116754;28;20058;-88
2022/03/14 02:16:14;;;;;;;33.13;16.95;;;5.10;41.20;;;;;;5116796;28;20032;-89
2022/03/14 02:18:39;;;;;;;37.45;18.25;;;5.00;41.40;;;;;;5117160;28;20024;-89
2022/03/14 02:21:08;;;;;;;35.15;17.60;;;4.80;41.30;;;;;;5117234;28;20035;-90
2022/03/14 02:23:34;;;;;;;37.58;18.52;;;4.20;42.10;;;;;;5116968;28;20036;-90
2022/03/14 02:26:00;;;;;;;33.90;17.60;;;3.80;42.90;;;;;;5117694;28;20024;-88
2022/03/14 02:28:28;;;;;;;34.90;17.67;;;3.70;43.50;;;;;;5116523;28;20024;-90
2022/03/14 02:30:54;;;;;;;35.17;17.38;;;3.80;43.70;;;;;;5117932;28;20027;-90
2022/03/14 02:33:20;;;;;;;34.90;16.77;;;3.60;44.00;;;;;;5116693;28;20023;-91
2022/03/14 02:35:47;;;;;;;33.97;16.80;;;3.40;43.80;;;;;;5117852;28;20028;-90
2022/03/14 02:38:17;;;;;;;31.92;15.85;;;3.30;44.30;;;;;;5116637;28;20019;-88
2022/03/14 02:40:46;;;;;;;;;;;3.20;44.40;;;;;;5116854;28;20066;-89
2022/03/14 02:43:14;;;;;;;33.30;16.58;;;3.40;45.00;;;;;;5116732;28;19998;-90
2022/03/14 02:45:41;;;;;;;35.03;17.95;;;3.50;44.20;;;;;;5116143;28;20027;-90
2022/03/14 02:48:07;;;;;;;35.92;17.33;;;3.50;44.70;;;;;;5116596;28;20415;-90
2022/03/14 02:50:34;;;;;;;34.95;17.70;;;3.40;44.60;;;;;;5116365;28;20046;-88
2022/03/14 02:53:00;;;;;;;37.08;17.67;;;3.30;45.30;;;;;;5116158;28;20031;-88
2022/03/14 02:55:26;;;;;;;35.85;17.58;;;3.20;46.20;;;;;;5116315;28;20019;-89
2022/03/14 02:57:52;;;;;;;35.00;17.35;;;3.10;45.70;;;;;;5116230;28;20108;-86
2022/03/14 03:00:18;;;;;;;38.00;18.75;;;3.20;45.70;;;;;;5117182;28;20118;-86
2022/03/14 03:02:44;;;;;;;35.72;18.20;;;3.30;45.70;;;;;;5115863;28;20028;-88
2022/03/14 03:05:10;;;;;;;33.90;18.52;;;3.60;45.80;;;;;;5116304;28;20027;-89
2022/03/14 03:07:36;;;;;;;40.75;18.35;;;3.90;45.10;;;;;;5115706;28;20359;-86
2022/03/14 03:10:04;;;;;;;34.17;17.48;;;4.20;44.20;;;;;;5115443;28;20027;-88
2022/03/14 03:12:31;;;;;;;33.42;17.02;;;4.00;44.40;;;;;;5116114;28;20027;-86
2022/03/14 03:14:58;;;;;;;36.63;17.55;;;3.80;44.50;;;;;;5116218;28;20032;-88
2022/03/14 03:17:24;;;;;;;37.40;18.55;;;3.10;45.30;;;;;;5117026;28;20152;-86
2022/03/14 03:19:53;;;;;;;36.08;17.50;;;2.90;46.20;;;;;;5116334;28;20032;-87
2022/03/14 03:22:18;;;;;;;38.65;18.10;;;2.60;47.10;;;;;;5116697;28;20027;-86
2022/03/14 03:24:52;;;;;;;39.50;18.95;;;2.50;48.00;;;;;;5116280;28;20039;-86
2022/03/14 03:27:19;;;;;;;36.25;17.73;;;2.70;47.50;;;;;;5116494;28;20032;-84
2022/03/14 03:29:45;;;;;;;34.28;17.58;;;3.00;46.70;;;;;;5117041;28;20016;-86
2022/03/14 03:32:10;;;;;;;38.03;18.40;;;3.40;45.80;;;;;;5115702;28;20050;-84
2022/03/14 03:34:36;;;;;;;35.42;18.50;;;3.70;45.30;;;;;;5115778;28;20042;-82
2022/03/14 03:37:02;;;;;;;35.80;17.35;;;3.80;45.00;;;;;;5116825;28;20374;-85
2022/03/14 03:39:27;;;;;;;36.53;18.50;;;3.80;44.60;;;;;;5116009;28;20453;-86
2022/03/14 03:41:53;;;;;;;33.83;17.65;;;3.70;44.80;;;;;;5115068;28;20098;-84
2022/03/14 03:44:19;;;;;;;38.45;18.80;;;3.50;45.30;;;;;;5115251;28;20110;-85
2022/03/14 03:46:44;;;;;;;36.17;17.58;;;3.50;45.00;;;;;;5114946;28;20137;-85
2022/03/14 03:49:10;;;;;;;48.03;17.90;;;3.40;45.40;;;;;;5115017;28;20512;-84
2022/03/14 03:51:37;;;;;;;35.50;17.15;;;3.20;45.70;;;;;;5116056;28;20031;-85
2022/03/14 03:54:03;;;;;;;37.63;18.00;;;3.20;45.70;;;;;;5116009;28;20035;-85
2022/03/14 03:56:30;;;;;;;36.67;18.02;;;3.40;45.50;;;;;;5116084;28;20022;-84
2022/03/14 03:58:55;;;;;;;40.35;18.75;;;3.40;45.40;;;;;;5114090;28;20023;-85
2022/03/14 04:01:22;;;;;;;41.55;18.45;;;3.50;45.50;;;;;;5114039;28;20032;-82
2022/03/14 04:03:54;;;;;;;37.85;18.30;;;3.60;45.30;;;;;;5115704;28;20028;-84
2022/03/14 04:06:22;;;;;;;41.17;18.73;;;3.60;44.90;;;;;;5114414;28;20028;-85
2022/03/14 04:08:48;;;;;;;39.55;19.52;;;3.70;44.70;;;;;;5114201;28;20024;-84
2022/03/14 04:11:15;;;;;;;38.20;17.92;;;3.70;44.60;;;;;;5114261;28;20363;-84
2022/03/14 04:13:42;;;;;;;36.72;17.10;;;3.60;44.50;;;;;;5114190;28;20019;-84
2022/03/14 04:16:08;;;;;;;38.13;18.58;;;3.50;44.90;;;;;;5114139;28;20027;-84
2022/03/14 04:18:34;;;;;;;34.83;16.85;;;3.70;44.70;;;;;;5115260;28;20080;-82
2022/03/14 04:21:00;;;;;;;39.20;19.27;;;3.80;44.50;;;;;;5113517;28;20039;-84
2022/03/14 04:23:26;;;;;;;47.35;20.58;;;3.80;44.30;;;;;;5113797;28;20043;-82
2022/03/14 04:25:52;;;;;;;42.35;19.58;;;3.90;44.00;;;;;;5113833;28;20027;-83
2022/03/14 04:28:18;;;;;;;50.67;24.17;;;3.90;44.10;;;;;;5115276;27;20068;-84
2022/03/14 04:30:44;;;;;;;55.90;25.17;;;3.90;44.20;;;;;;5113690;28;20038;-85
2022/03/14 04:33:10;;;;;;;45.28;22.23;;;4.00;43.80;;;;;;5113623;28;20034;-84
2022/03/14 04:35:36;;;;;;;59.70;26.73;;;3.90;43.70;;;;;;5113606;28;20473;-84
2022/03/14 04:38:04;;;;;;;50.17;24.35;;;3.80;43.90;;;;;;5113680;28;20031;-83
2022/03/14 04:40:32;;;;;;;45.50;20.98;;;3.70;44.20;;;;;;5114865;28;20038;-83
2022/03/14 04:42:58;;;;;;;42.75;20.58;;;3.70;44.00;;;;;;5113984;28;20030;-83
2022/03/14 04:45:24;;;;;;;38.30;18.35;;;3.40;44.50;;;;;;5115043;28;20382;-84
2022/03/14 04:47:50;;;;;;;38.65;19.27;;;3.40;44.80;;;;;;5113645;28;20456;-83
2022/03/14 04:50:16;;;;;;;42.22;18.50;;;3.40;45.10;;;;;;5114914;28;20114;-82
2022/03/14 04:52:41;;;;;;;36.20;18.15;;;3.50;45.00;;;;;;5113479;28;20024;-83
2022/03/14 04:55:08;;;;;;;39.03;17.85;;;3.60;44.90;;;;;;5113432;28;20049;-82
2022/03/14 04:57:33;;;;;;;35.17;17.50;;;3.60;44.90;;;;;;5113429;28;20024;-82
2022/03/14 04:59:59;;;;;;;33.78;16.17;;;3.80;44.80;;;;;;5114501;28;20028;-82
2022/03/14 05:02:25;;;;;;;33.60;16.00;;;4.00;44.70;;;;;;5113162;28;20016;-83
2022/03/14 05:04:51;;;;;;;31.67;17.27;;;4.10;44.30;;;;;;5114597;28;20027;-83
2022/03/14 05:07:17;;;;;;;35.70;17.95;;;4.20;43.70;;;;;;5113403;28;20424;-84
2022/03/14 05:09:42;;;;;;;39.38;18.75;;;4.00;43.70;;;;;;5112691;28;20466;-83
2022/03/14 05:12:11;;;;;;;36.40;17.95;;;4.30;43.90;;;;;;5112916;28;20080;-84
2022/03/14 05:14:38;;;;;;;33.78;17.42;;;4.40;43.80;;;;;;5112971;28;20020;-82
2022/03/14 05:17:03;;;;;;;36.33;17.85;;;4.60;43.40;;;;;;5113978;28;20046;-83
2022/03/14 05:19:29;;;;;;;32.47;16.20;;;4.60;43.00;;;;;;5114003;28;20378;-83
2022/03/14 05:21:57;;;;;;;32.92;16.27;;;4.70;42.80;;;;;;5113982;28;20039;-83
2022/03/14 05:24:23;;;;;;;33.22;16.80;;;4.80;42.70;;;;;;5112899;28;20040;-82
2022/03/14 05:26:52;;;;;;;36.42;17.33;;;4.90;42.50;;;;;;5112971;28;20038;-83
2022/03/14 05:29:18;;;;;;;33.38;17.95;;;4.70;42.60;;;;;;5112477;28;20492;-83
2022/03/14 05:31:44;;;;;;;34.40;17.52;;;4.60;43.10;;;;;;5112413;28;20063;-82
2022/03/14 05:34:09;;;;;;;35.42;17.05;;;4.60;43.20;;;;;;5112394;28;20118;-82
2022/03/14 05:36:36;;;;;;;36.47;17.40;;;4.30;43.50;;;;;;5112840;28;20027;-83
2022/03/14 05:39:02;;;;;;;34.88;17.50;;;4.30;43.80;;;;;;5112661;28;20063;-83
2022/03/14 05:41:28;;;;;;;37.70;17.85;;;4.00;44.40;;;;;;5112498;28;20275;-83
2022/03/14 05:43:53;;;;;;;34.88;17.45;;;3.90;45.20;;;;;;5112281;28;20058;-83
2022/03/14 05:46:19;;;;;;;37.55;17.40;;;4.00;45.90;;;;;;5113647;28;20038;-82
2022/03/14 05:48:44;;;;;;;45.22;17.83;;;3.80;46.10;;;;;;5113043;28;20517;-82
2022/03/14 05:51:10;;;;;;;35.75;18.00;;;3.90;46.00;;;;;;5112815;28;20038;-83
2022/03/14 05:53:36;;;;;;;38.10;17.60;;;3.90;45.90;;;;;;5112799;28;20042;-83
2022/03/14 05:56:02;;;;;;;37.55;17.52;;;4.10;46.00;;;;;;5114393;28;20024;-83
2022/03/14 05:58:28;;;;;;;34.92;17.80;;;4.50;45.10;;;;;;5112811;28;20027;-82
2022/03/14 06:00:53;;;;;;;33.28;17.63;;;4.70;44.80;;;;;;5112410;28;20154;-83
2022/03/14 06:03:20;;;;;;;32.17;16.45;;;4.90;44.40;;;;;;5112570;28;20024;-81
2022/03/14 06:05:49;;;;;;;31.80;17.10;;;5.20;44.00;;;;;;5113067;28;20359;-83
2022/03/14 06:08:18;;;;;;;34.53;16.50;;;5.40;43.50;;;;;;5112029;28;20055;-82
2022/03/14 06:10:45;;;;;;;32.72;16.80;;;5.70;43.30;;;;;;5112942;28;20065;-82
2022/03/14 06:13:15;;;;;;;31.48;16.52;;;6.00;42.90;;;;;;5112405;28;20071;-82
2022/03/14 06:15:45;;;;;;;34.00;18.15;;;6.10;42.10;;;;;;5099410;28;20016;-82
2022/03/14 06:18:11;;;;;;;32.53;18.70;;;6.30;42.00;;;;;;5092154;28;20050;-83
2022/03/14 06:20:37;;;;;;;43.67;22.48;;;6.40;42.00;;;;;;5112411;28;20031;-82
2022/03/14 06:23:03;;;;;;;39.08;22.05;;;6.60;41.60;;;;;;5112232;28;20035;-84
2022/03/14 06:25:29;;;;;;;41.35;22.42;;;6.70;41.70;;;;;;5107609;28;20031;-81
2022/03/14 06:27:55;;;;;;;33.88;19.02;;;6.90;41.40;;;;;;4756942;28;9999785;-82
2022/03/14 06:30:21;;;;;;;37.22;19.50;;;7.00;41.10;;;;;;5111051;28;20027;-84
2022/03/14 06:32:48;;;;;;;41.97;21.05;;;7.10;41.20;;;;;;5112038;28;20355;-80
2022/03/14 06:35:15;;;;;;;38.63;19.73;;;7.20;41.20;;;;;;5112156;28;20028;-82
2022/03/14 06:37:43;;;;;;;38.13;19.88;;;7.10;41.20;;;;;;5110538;28;20024;-81
2022/03/14 06:40:09;;;;;;;42.42;20.83;;;7.40;41.50;;;;;;5110268;28;20066;-79
2022/03/14 06:42:39;;;;;;;41.70;21.73;;;7.60;41.20;;;;;;5110742;28;20115;-82
2022/03/14 06:45:05;;;;;;;40.73;20.20;;;7.70;41.30;;;;;;5112441;28;20469;-81
2022/03/14 06:47:32;;;;;;;39.13;21.38;;;7.80;41.20;;;;;;5114838;28;20077;-82
2022/03/14 06:49:58;;;;;;;38.03;20.40;;;8.00;40.90;;;;;;5116403;28;20016;-82
2022/03/14 06:52:24;;;;;;;53.92;27.75;;;8.00;39.90;;;;;;5113821;28;20038;-82
2022/03/14 06:54:50;;;;;;;37.20;19.05;;;8.10;39.90;;;;;;5114345;28;20386;-80
2022/03/14 06:57:15;;;;;;;40.25;19.15;;;8.20;39.00;;;;;;5113694;28;20022;-80
2022/03/14 06:59:41;;;;;;;33.65;17.40;;;8.30;38.50;;;;;;5113422;28;20032;-82
2022/03/14 07:02:07;;;;;;;35.90;17.30;;;8.40;38.40;;;;;;5113306;28;20373;-81
2022/03/14 07:04:34;;;;;;;35.60;18.38;;;8.40;38.50;;;;;;5113927;28;20031;-82
2022/03/14 07:07:03;;;;;;;36.28;18.27;;;8.40;38.40;;;;;;5114041;28;20035;-80
2022/03/14 07:09:30;;;;;;;31.80;17.02;;;8.50;38.40;;;;;;5114619;28;20015;-81
2022/03/14 07:11:56;;;;;;;34.90;18.15;;;8.50;38.50;;;;;;5113220;28;20619;-78
2022/03/14 07:14:22;;;;;;;28.83;16.58;;;8.50;38.00;;;;;;5096261;28;20023;-79
2022/03/14 07:16:49;;;;;;;33.88;16.55;;;8.30;37.90;;;;;;5112569;28;20106;-81
2022/03/14 07:19:15;;;;;;;32.63;17.17;;;8.40;38.20;;;;;;5113032;28;20098;-78
2022/03/14 07:21:40;;;;;;;27.80;15.73;;;8.80;37.90;;;;;;5111064;28;20176;-80
2022/03/14 07:24:06;;;;;;;26.80;15.07;;;9.10;36.00;;;;;;5110955;28;20122;-80
2022/03/14 07:26:32;;;;;;;28.10;15.93;;;9.30;35.20;;;;;;5111089;28;20023;-80
2022/03/14 07:28:58;;;;;;;28.90;15.65;;;9.40;34.40;;;;;;5105105;28;20024;-78
2022/03/14 07:31:24;;;;;;;31.17;15.27;;;9.60;34.20;;;;;;5092080;28;20081;-78
2022/03/14 07:33:51;;;;;;;29.27;16.95;;;9.90;33.70;;;;;;5091746;28;20027;-79
2022/03/14 07:36:17;;;;;;;30.00;16.02;;;10.30;33.60;;;;;;5092281;28;20020;-78
2022/03/14 07:38:44;;;;;;;30.08;16.90;;;9.50;32.60;;;;;;5091818;28;20035;-79
2022/03/14 07:41:10;;;;;;;33.95;17.70;;;9.30;33.10;;;;;;5091567;28;20036;-79
2022/03/14 07:43:38;;;;;;;25.80;15.75;;;9.20;33.40;;;;;;5091219;28;20057;-77
2022/03/14 07:46:04;;;;;;;34.97;18.23;;;9.20;33.40;;;;;;5091835;28;20103;-79
2022/03/14 07:48:30;;;;;;;34.63;18.70;;;9.50;33.60;;;;;;5091042;28;20020;-79
2022/03/14 07:50:56;;;;;;;32.42;17.63;;;9.90;33.50;;;;;;5092948;28;20666;-81
2022/03/14 07:53:22;;;;;;;31.75;17.85;;;10.20;32.90;;;;;;5092226;28;20459;-78
2022/03/14 07:55:48;;;;;;;37.42;18.95;;;10.60;33.10;;;;;;5091970;28;20127;-80
2022/03/14 07:58:14;;;;;;;34.97;19.30;;;11.70;32.80;;;;;;5091887;28;20111;-80
2022/03/14 08:00:40;;;;;;;39.13;20.48;;;13.30;31.50;;;;;;5093300;28;20071;-82
2022/03/14 08:03:06;;;;;;;41.28;21.35;;;14.90;30.70;;;;;;5092074;28;20433;-79
2022/03/14 08:05:32;;;;;;;39.55;20.38;;;16.30;30.00;;;;;;5091396;28;20028;-80
2022/03/14 08:07:59;;;;;;;36.03;20.45;;;17.10;30.00;;;;;;5092822;28;20046;-82
2022/03/14 08:10:26;;;;;;;35.45;19.63;;;18.90;29.50;;;;;;5092026;28;20436;-84
2022/03/14 08:12:53;;;;;;;31.80;18.63;;;20.70;28.90;;;;;;5091966;28;20066;-82
2022/03/14 08:15:31;;;;;;;27.80;19.05;;;21.10;28.00;;;;;;5091136;28;20059;-82
2022/03/14 08:18:01;;;;;;;37.95;19.83;;;20.00;28.60;;;;;;5092287;28;20020;-81
2022/03/14 08:20:27;;;;;;;37.00;20.65;;;18.30;29.00;;;;;;5091990;28;20035;-83
2022/03/14 08:22:55;;;;;;;39.10;20.27;;;17.30;29.70;;;;;;5093011;28;20034;-82
2022/03/14 08:25:22;;;;;;;35.28;20.63;;;17.80;29.90;;;;;;5092194;28;20059;-85
2022/03/14 08:27:48;;;;;;;32.55;20.42;;;18.70;29.00;;;;;;5092127;28;20024;-83
2022/03/14 08:30:14;;;;;;;38.53;20.20;;;18.60;28.70;;;;;;5093644;28;20486;-83
2022/03/14 08:32:41;;;;;;;32.83;19.63;;;18.60;28.80;;;;;;5092340;28;20573;-82
2022/03/14 08:35:16;;;;;;;38.42;20.15;;;18.90;28.80;;;;;;5105544;28;20028;-81
2022/03/14 08:37:45;;;;;;;30.90;19.02;;;18.80;29.20;;;;;;5112170;28;20031;-80
2022/03/14 08:40:14;;;;;;;27.77;18.38;;;19.30;28.50;;;;;;5112120;28;20031;-78
2022/03/14 08:42:42;;;;;;;39.63;19.98;;;19.80;28.50;;;;;;5112248;28;20039;-79
2022/03/14 08:45:09;;;;;;;37.33;19.80;;;20.20;28.00;;;;;;5112784;28;20068;-82
2022/03/14 08:47:35;;;;;;;38.45;20.45;;;20.30;29.00;;;;;;5112697;28;20028;-81
2022/03/14 08:50:03;;;;;;;31.02;17.80;;;20.80;28.30;;;;;;5114229;28;20016;-81
2022/03/14 08:52:29;;;;;;;27.33;17.80;;;21.40;27.60;;;;;;5114059;28;20424;-79
2022/03/14 08:54:56;;;;;;;27.67;17.73;;;21.00;27.40;;;;;;5112600;28;20020;-80
2022/03/14 08:57:22;;;;;;;30.15;18.08;;;20.30;27.40;;;;;;5114188;28;20028;-81
2022/03/14 08:59:47;;;;;;;27.73;18.05;;;19.30;28.40;;;;;;5112948;28;20031;-81
2022/03/14 09:02:13;;;;;;;26.52;18.05;;;19.60;28.50;;;;;;5113891;28;20038;-79
2022/03/14 09:04:39;;;;;;;30.95;17.90;;;19.70;28.80;;;;;;5113611;28;20478;-81
2022/03/14 09:07:05;;;;;;;27.67;16.92;;;20.00;28.10;;;;;;5112774;28;20034;-80
2022/03/14 09:09:31;;;;;;;22.63;15.30;;;21.60;28.30;;;;;;5113756;28;20094;-79
2022/03/14 09:11:58;;;;;;;23.60;14.77;;;22.10;27.50;;;;;;5112544;28;20123;-80
2022/03/14 09:14:24;;;;;;;26.67;15.13;;;22.10;27.60;;;;;;5112531;28;20053;-81
2022/03/14 09:16:51;;;;;;;23.67;13.85;;;23.80;27.60;;;;;;5112358;28;20051;-80
2022/03/14 09:19:17;;;;;;;24.15;14.65;;;25.30;27.00;;;;;;5113972;28;20019;-81
2022/03/14 09:21:43;;;;;;;23.42;14.70;;;26.60;26.20;;;;;;5113657;28;20045;-80
2022/03/14 09:24:08;;;;;;;19.02;12.70;;;26.60;26.50;;;;;;5113355;28;20039;-80
2022/03/14 09:26:36;;;;;;;17.30;11.93;;;26.10;26.50;;;;;;5112292;28;20062;-80
2022/03/14 09:29:02;;;;;;;20.20;13.57;;;25.80;26.00;;;;;;5112082;28;20137;-80
2022/03/14 09:31:29;;;;;;;29.33;14.23;;;25.80;26.30;;;;;;5112485;28;20039;-82
2022/03/14 09:33:55;;;;;;;21.52;13.27;;;25.00;26.20;;;;;;5112788;28;20069;-82
2022/03/14 09:36:20;;;;;;;18.58;12.23;;;23.80;26.30;;;;;;5112453;28;20032;-82
2022/03/14 09:38:46;;;;;;;20.35;12.93;;;22.30;26.60;;;;;;5112559;28;20424;-80
2022/03/14 09:41:17;;;;;;;17.63;12.05;;;21.90;27.50;;;;;;5113277;28;20027;-81
2022/03/14 09:43:46;;;;;;;16.83;12.57;;;22.00;26.80;;;;;;5113852;28;20065;-81
2022/03/14 09:46:12;;;;;;;16.63;11.32;;;21.60;27.00;;;;;;5113534;28;20023;-81
2022/03/14 09:48:40;;;;;;;25.23;19.35;;;21.00;26.90;;;;;;5112485;28;20027;-83
2022/03/14 09:51:07;;;;;;;20.73;12.98;;;20.60;27.30;;;;;;5113148;28;20051;-84
2022/03/14 09:53:35;;;;;;;17.50;11.80;;;21.00;27.40;;;;;;5113823;28;20094;-84
2022/03/14 09:56:01;;;;;;;19.63;12.15;;;21.90;26.90;;;;;;5113630;28;20031;-82
2022/03/14 09:58:27;;;;;;;23.35;12.25;;;22.10;26.70;;;;;;5102583;28;20075;-87
2022/03/14 10:00:53;;;;;;;16.58;12.52;;;22.30;26.60;;;;;;5092439;28;20035;-79
2022/03/14 10:03:21;;;;;;;24.38;10.98;;;22.30;26.60;;;;;;5092113;28;20024;-80
2022/03/14 10:05:47;;;;;;;17.52;12.30;;;22.50;26.50;;;;;;5092320;28;20028;-82
2022/03/14 10:08:14;;;;;;;18.17;11.32;;;22.40;26.90;;;;;;5093400;28;20490;-84
2022/03/14 10:10:40;;;;;;;21.63;11.23;;;22.30;26.50;;;;;;5092063;28;20111;-84
2022/03/14 10:13:09;;;;;;;17.73;11.57;;;22.30;26.40;;;;;;5092289;28;20024;-83
2022/03/14 10:15:37;;;;;;;19.67;11.70;;;22.10;27.00;;;;;;5093699;28;20048;-82
2022/03/14 10:18:15;;;;;;;18.25;11.10;;;22.60;26.50;;;;;;5093396;28;20026;-82
2022/03/14 10:21:07;;;;;;;15.13;10.52;;;22.90;26.50;;;;;;5097065;28;20039;-83
2022/03/14 10:23:37;;;;;;;17.17;10.93;;;24.20;26.10;;;;;;5095671;28;20048;-83
2022/03/14 10:26:06;;;;;;;18.17;11.53;;;24.50;25.80;;;;;;5095924;28;20024;-83
2022/03/14 10:28:35;;;;;;;16.02;10.50;;;24.20;26.00;;;;;;5095968;28;20032;-83
2022/03/14 10:31:02;;;;;;;19.73;11.35;;;24.00;26.20;;;;;;5101610;28;20059;-79
2022/03/14 10:33:32;;;;;;;17.40;11.27;;;23.50;26.30;;;;;;5116506;28;20024;-83
2022/03/14 10:35:58;;;;;;;17.52;11.23;;;24.40;26.00;;;;;;5114863;28;20035;-83
2022/03/14 10:38:27;;;;;;;14.73;10.05;;;25.30;26.30;;;;;;4878779;28;10001028;-83
2022/03/14 10:40:57;;;;;;;17.75;10.52;;;25.00;25.90;;;;;;4758532;28;9999785;-84
2022/03/14 10:43:32;;;;;;;14.90;10.20;;;23.70;26.60;;;;;;5112540;28;20089;-82
2022/03/14 10:45:59;;;;;;;14.80;9.75;;;24.00;26.30;;;;;;5096843;28;20051;-84
2022/03/14 10:50:35;;;;;;;18.58;10.20;;;25.20;25.90;;;;;;5086368;27;1410907;-82
2022/03/14 10:53:21;;;;;;;16.48;9.60;;;25.80;25.90;;;;;;5093567;28;20055;-85
2022/03/14 10:55:49;;;;;;;14.20;9.93;;;24.30;26.20;;;;;;5093304;28;20039;-83
2022/03/14 10:58:21;;;;;;;23.08;12.65;;;24.00;26.10;;;;;;5093880;28;20036;-83
2022/03/14 11:00:58;;;;;;;26.90;16.35;;;23.80;26.60;;;;;;5094036;28;20389;-83
2022/03/14 11:03:35;;;;;;;18.48;12.55;;;23.80;26.70;;;;;;5093958;28;20020;-84
2022/03/14 11:06:14;;;;;;;16.05;11.40;;;22.50;26.90;;;;;;5111646;28;20026;-84
2022/03/14 11:08:42;;;;;;;14.18;9.93;;;23.50;26.60;;;;;;5111916;28;20089;-81
2022/03/14 11:11:16;;;;;;;14.23;10.32;;;24.10;26.80;;;;;;5093799;28;20056;-83
2022/03/14 11:13:43;;;;;;;24.55;12.73;;;25.60;26.10;;;;;;5112260;28;20024;-84
2022/03/14 11:16:29;;;;;;;22.25;11.05;;;24.80;26.60;;;;;;5093866;28;20110;-82
2022/03/14 11:18:56;;;;;;;17.77;11.15;;;24.20;26.70;;;;;;5082826;28;20020;-84
2022/03/14 11:21:24;;;;;;;18.90;10.25;;;22.40;27.10;;;;;;5080811;28;20024;-82
2022/03/14 11:23:52;;;;;;;22.38;10.27;;;19.80;28.10;;;;;;5078467;28;20024;-80
2022/03/14 11:26:20;;;;;;;19.35;11.15;;;18.50;28.50;;;;;;5086763;28;20141;-77
2022/03/14 11:28:47;;;;;;;18.30;11.38;;;17.70;29.00;;;;;;5086566;28;20134;-79
2022/03/14 11:31:14;;;;;;;21.77;10.90;;;17.70;29.30;;;;;;5100619;28;20028;-81
2022/03/14 11:33:43;;;;;;;14.15;9.95;;;17.50;29.20;;;;;;5089631;28;20111;-79
2022/03/14 11:36:09;;;;;;;16.55;10.52;;;17.20;29.30;;;;;;5071190;28;20028;-79
2022/03/14 11:38:35;;;;;;;32.08;10.65;;;16.80;29.40;;;;;;5072547;28;20479;-80
2022/03/14 11:41:02;;;;;;;19.92;10.68;;;16.10;29.50;;;;;;5072146;28;20031;-79
2022/03/14 11:43:28;;;;;;;29.67;10.25;;;16.60;29.90;;;;;;5072068;28;20028;-80
2022/03/14 11:45:58;;;;;;;13.80;9.60;;;17.20;29.40;;;;;;5072381;28;20421;-81
2022/03/14 11:48:28;;;;;;;16.65;10.25;;;16.80;29.10;;;;;;5055470;28;20398;-81
2022/03/14 11:50:53;;;;;;;15.23;9.63;;;16.90;29.10;;;;;;5090186;28;20430;-85
2022/03/14 11:53:28;;;;;;;18.15;10.63;;;17.00;29.20;;;;;;5090526;28;20036;-81
2022/03/14 11:56:08;;;;;;;18.15;9.60;;;17.20;29.30;;;;;;5072734;28;20114;-84
2022/03/14 11:58:42;;;;;;;21.60;10.32;;;17.10;29.50;;;;;;5071881;28;20485;-82
2022/03/14 12:01:28;;;;;;;23.38;10.05;;;17.40;29.30;;;;;;5061641;28;20024;-85
2022/03/14 12:03:59;;;;;;;15.57;9.27;;;17.10;29.60;;;;;;5058136;28;20043;-80
2022/03/14 12:06:46;;;;;;;21.77;12.05;;;17.50;29.50;;;;;;5057934;28;20066;-81
2022/03/14 12:09:23;;;;;;;16.85;9.73;;;17.50;29.60;;;;;;5076021;28;20041;-79
2022/03/14 12:11:56;;;;;;;23.45;11.05;;;17.10;29.70;;;;;;5059254;28;20016;-83
2022/03/14 12:14:44;;;;;;;13.02;8.93;;;17.40;29.50;;;;;;5058116;28;20029;-80
2022/03/14 12:17:12;;;;;;;13.68;8.75;;;17.90;29.10;;;;;;5058133;28;20368;-79
2022/03/14 12:19:42;;;;;;;21.63;10.98;;;17.70;29.30;;;;;;5075659;28;20021;-78
2022/03/14 12:22:13;;;;;;;18.13;8.30;;;17.70;29.70;;;;;;5057756;28;20546;-80
2022/03/14 12:24:38;;;;;;;26.33;10.65;;;17.50;29.80;;;;;;5057837;28;20021;-78
2022/03/14 12:27:17;;;;;;;27.25;17.30;;;17.00;29.30;;;;;;5058217;28;20062;-79
2022/03/14 12:29:43;;;;;;;16.55;8.27;;;16.60;29.60;;;;;;5064213;28;20051;-82
2022/03/14 12:32:34;;;;;;;18.30;11.65;;;16.40;30.30;;;;;;5057744;28;20024;-80
2022/03/14 12:35:00;;;;;;;;;;;16.50;30.50;;;;;;4979280;28;20049;-80
2022/03/14 12:37:38;;;;;;;14.15;8.35;;;16.30;30.00;;;;;;4976947;28;19910;-80